Time;durP1;ratioP1;P1;durP2;ratioP2;P2;SDS_P1;SDS_P2;PMS_P1;PMS_P2;Temp;Humidity;BMP_temperature;BMP_pressure;BME280_temperature;BME280_humidity;BME280_pressure;Samples;Min_cycle;Max_cycle;Signal;HPM_P1;HPM_P2
2021/12/27 00:00:31;;;;;;;1.80;0.93;;;5.30;99.90;;;;;;5064652;28;20199;-83
2021/12/27 00:03:00;;;;;;;0.80;0.37;;;5.30;99.90;;;;;;5068019;28;20208;-83
2021/12/27 00:05:26;;;;;;;0.77;0.53;;;5.20;99.90;;;;;;5066589;28;20208;-84
2021/12/27 00:07:54;;;;;;;3.13;0.50;;;5.20;99.90;;;;;;5065576;28;20239;-84
2021/12/27 00:10:21;;;;;;;0.27;0.27;;;5.30;99.90;;;;;;5067683;28;20381;-84
2021/12/27 00:12:47;;;;;;;0.50;0.50;;;5.10;99.90;;;;;;5060793;28;20725;-84
2021/12/27 00:15:14;;;;;;;0.43;0.43;;;5.20;99.90;;;;;;5063788;28;20716;-83
2021/12/27 00:17:41;;;;;;;0.30;0.30;;;5.20;99.90;;;;;;5065776;28;20238;-84
2021/12/27 00:20:09;;;;;;;0.10;0.10;;;5.30;99.90;;;;;;5066347;28;20281;-84
2021/12/27 00:22:35;;;;;;;0.40;0.40;;;5.30;99.90;;;;;;5066299;28;20207;-84
2021/12/27 00:25:00;;;;;;;0.30;0.30;;;5.20;99.90;;;;;;5066067;28;20221;-84
2021/12/27 00:27:26;;;;;;;0.27;0.27;;;5.20;99.90;;;;;;5062578;28;20716;-83
2021/12/27 00:29:52;;;;;;;0.40;0.40;;;5.20;99.90;;;;;;5061647;28;20280;-84
2021/12/27 00:32:18;;;;;;;0.33;0.33;;;5.20;99.90;;;;;;5067248;28;20251;-84
2021/12/27 00:34:44;;;;;;;0.60;0.60;;;5.20;99.90;;;;;;5065453;28;20207;-84
2021/12/27 00:37:09;;;;;;;0.83;0.40;;;5.30;99.90;;;;;;5065533;28;20181;-84
2021/12/27 00:39:36;;;;;;;0.67;0.67;;;5.30;99.90;;;;;;5064406;28;20181;-84
2021/12/27 00:42:02;;;;;;;0.20;0.20;;;5.30;99.90;;;;;;5066567;28;20284;-84
2021/12/27 00:44:28;;;;;;;0.23;0.17;;;5.40;99.90;;;;;;5064980;28;20545;-84
2021/12/27 00:46:54;;;;;;;0.93;0.50;;;5.40;99.90;;;;;;5065769;28;20192;-84
2021/12/27 00:49:20;;;;;;;0.57;0.57;;;5.40;99.90;;;;;;5064419;28;20195;-84
2021/12/27 00:51:46;;;;;;;0.63;0.63;;;5.40;99.90;;;;;;5063548;28;20672;-85
2021/12/27 00:54:12;;;;;;;0.13;0.13;;;5.40;99.90;;;;;;5066750;28;20183;-84
2021/12/27 00:56:37;;;;;;;0.10;0.10;;;5.40;99.90;;;;;;5065253;28;20550;-83
2021/12/27 00:59:03;;;;;;;1.27;0.83;;;5.40;99.90;;;;;;5060917;28;20420;-84
2021/12/27 01:01:28;;;;;;;0.73;0.30;;;5.40;99.90;;;;;;5066369;28;20209;-84
2021/12/27 01:03:54;;;;;;;0.30;0.30;;;5.30;99.90;;;;;;5065676;28;20184;-84
2021/12/27 01:06:19;;;;;;;0.47;0.47;;;5.40;99.90;;;;;;5066606;28;20204;-84
2021/12/27 01:08:45;;;;;;;0.30;0.30;;;5.30;99.90;;;;;;5065887;28;20658;-84
2021/12/27 01:11:24;;;;;;;0.20;0.20;;;5.30;99.90;;;;;;5064623;28;20223;-84
2021/12/27 01:14:13;;;;;;;0.40;0.40;;;5.30;99.90;;;;;;5063654;28;20177;-84
2021/12/27 01:16:42;;;;;;;0.63;0.63;;;5.40;99.90;;;;;;5065157;28;20176;-84
2021/12/27 01:19:08;;;;;;;0.30;0.30;;;5.40;99.90;;;;;;5064214;28;20181;-84
2021/12/27 01:21:34;;;;;;;2.03;0.67;;;5.40;99.90;;;;;;5061997;28;20223;-84
2021/12/27 01:24:01;;;;;;;0.23;0.23;;;5.40;99.90;;;;;;5065051;28;20618;-84
2021/12/27 01:26:27;;;;;;;1.90;1.50;;;5.30;99.90;;;;;;5062310;28;20256;-83
2021/12/27 01:28:54;;;;;;;1.00;0.53;;;5.30;99.90;;;;;;5060205;28;20192;-84
2021/12/27 01:31:19;;;;;;;3.10;0.53;;;5.40;99.90;;;;;;5064995;28;20747;-85
2021/12/27 01:33:46;;;;;;;0.30;0.30;;;5.40;99.90;;;;;;5063639;28;20185;-84
2021/12/27 01:36:13;;;;;;;0.73;0.73;;;5.40;99.90;;;;;;5064679;28;20280;-83
2021/12/27 01:38:40;;;;;;;0.50;0.50;;;5.40;99.90;;;;;;5064522;28;20187;-84
2021/12/27 01:41:06;;;;;;;0.57;0.40;;;5.50;99.90;;;;;;5065880;28;20287;-84
2021/12/27 01:43:34;;;;;;;0.10;0.10;;;5.50;99.90;;;;;;5058101;28;20188;-84
2021/12/27 01:46:07;;;;;;;0.53;0.53;;;5.50;99.90;;;;;;5064190;28;20774;-84
2021/12/27 01:48:39;;;;;;;0.53;0.43;;;5.50;99.90;;;;;;5064110;28;21232;-84
2021/12/27 01:51:09;;;;;;;0.10;0.10;;;5.50;99.90;;;;;;5064853;28;20872;-84
2021/12/27 01:53:36;;;;;;;0.20;0.20;;;5.60;99.90;;;;;;5063540;28;20988;-84
2021/12/27 01:56:04;;;;;;;0.23;0.23;;;5.60;99.90;;;;;;5064728;28;20185;-84
2021/12/27 01:58:30;;;;;;;1.00;0.93;;;5.50;99.90;;;;;;5061722;28;20261;-84
2021/12/27 02:00:58;;;;;;;0.70;0.60;;;5.40;99.90;;;;;;5063745;28;20551;-84
2021/12/27 02:03:27;;;;;;;0.30;0.30;;;5.40;99.90;;;;;;5062924;28;20190;-84
2021/12/27 02:05:53;;;;;;;0.40;0.40;;;5.50;99.90;;;;;;5063872;28;20201;-84
2021/12/27 02:08:19;;;;;;;0.50;0.40;;;5.50;99.90;;;;;;5064746;28;20246;-84
2021/12/27 02:10:45;;;;;;;0.87;0.87;;;5.50;99.90;;;;;;5059785;28;20185;-84
2021/12/27 02:13:11;;;;;;;0.20;0.20;;;5.50;99.90;;;;;;5064772;28;20176;-84
2021/12/27 02:15:37;;;;;;;0.40;0.40;;;5.50;99.90;;;;;;5060908;28;20184;-84
2021/12/27 02:18:04;;;;;;;0.50;0.33;;;5.40;99.90;;;;;;5064833;28;20181;-84
2021/12/27 02:20:32;;;;;;;1.03;0.67;;;5.10;99.90;;;;;;5064596;28;20557;-84
2021/12/27 02:23:02;;;;;;;1.93;1.80;;;4.60;99.90;;;;;;5061687;28;20228;-84
2021/12/27 02:25:31;;;;;;;0.50;0.50;;;4.20;99.90;;;;;;5069789;28;20916;-84
2021/12/27 02:27:58;;;;;;;0.47;0.40;;;4.20;99.90;;;;;;5068921;28;20599;-84
2021/12/27 02:30:24;;;;;;;0.90;0.40;;;4.30;99.90;;;;;;5069163;28;20653;-84
2021/12/27 02:32:55;;;;;;;0.20;0.20;;;4.40;99.90;;;;;;5068704;28;20232;-84
2021/12/27 02:35:24;;;;;;;0.37;0.33;;;4.70;99.90;;;;;;5068298;28;20203;-84
2021/12/27 02:37:50;;;;;;;0.20;0.13;;;4.70;99.90;;;;;;5067372;28;20642;-84
2021/12/27 02:40:17;;;;;;;1.33;0.80;;;4.80;99.90;;;;;;5065276;28;20193;-84
2021/12/27 02:43:14;;;;;;;0.73;0.73;;;4.90;99.90;;;;;;5069083;28;20200;-84
2021/12/27 02:45:45;;;;;;;0.30;0.30;;;5.10;99.90;;;;;;5059767;28;20210;-84
2021/12/27 02:48:12;;;;;;;0.97;0.97;;;5.20;99.90;;;;;;5068798;28;20184;-85
2021/12/27 02:50:39;;;;;;;0.20;0.20;;;5.00;99.90;;;;;;5069509;28;20587;-84
2021/12/27 02:53:06;;;;;;;0.50;0.50;;;4.80;99.90;;;;;;5066929;28;20197;-84
2021/12/27 02:55:32;;;;;;;0.53;0.53;;;4.60;99.90;;;;;;5066078;28;20258;-84
2021/12/27 02:57:58;;;;;;;0.47;0.40;;;4.30;99.90;;;;;;5067428;28;20192;-84
2021/12/27 03:00:45;;;;;;;0.20;0.20;;;4.20;99.90;;;;;;5067995;28;20177;-84
2021/12/27 03:03:11;;;;;;;1.17;1.10;;;4.50;99.90;;;;;;5066363;28;20300;-84
2021/12/27 03:05:36;;;;;;;0.37;0.27;;;4.70;99.90;;;;;;5067907;28;20288;-84
2021/12/27 03:08:03;;;;;;;0.77;0.40;;;4.80;99.90;;;;;;5068603;28;20294;-84
2021/12/27 03:10:34;;;;;;;0.20;0.20;;;4.90;99.90;;;;;;5067066;28;20173;-85
2021/12/27 03:13:01;;;;;;;0.40;0.40;;;4.90;99.90;;;;;;5062449;28;20212;-84
2021/12/27 03:15:27;;;;;;;0.50;0.40;;;5.10;99.90;;;;;;5068003;28;20212;-84
2021/12/27 03:17:54;;;;;;;1.13;0.57;;;4.70;99.90;;;;;;5067221;28;20768;-84
2021/12/27 03:20:24;;;;;;;1.10;1.10;;;4.60;99.90;;;;;;5068396;28;20264;-84
2021/12/27 03:22:51;;;;;;;0.40;0.20;;;4.50;99.90;;;;;;5061993;28;20197;-83
2021/12/27 03:25:25;;;;;;;0.40;0.37;;;4.50;99.90;;;;;;5066850;28;20212;-84
2021/12/27 03:27:51;;;;;;;0.30;0.30;;;4.60;99.90;;;;;;5066281;28;20188;-84
2021/12/27 03:30:27;;;;;;;1.70;1.03;;;4.80;99.90;;;;;;5067757;28;20180;-84
2021/12/27 03:32:53;;;;;;;0.50;0.50;;;4.80;99.90;;;;;;5064917;28;20257;-84
2021/12/27 03:35:35;;;;;;;0.20;0.20;;;4.90;99.90;;;;;;5064516;28;20662;-83
2021/12/27 03:38:02;;;;;;;0.30;0.30;;;4.90;99.90;;;;;;5068278;28;20173;-84
2021/12/27 03:40:27;;;;;;;1.23;0.77;;;4.70;99.90;;;;;;5067188;28;20180;-84
2021/12/27 03:42:55;;;;;;;0.87;0.87;;;4.50;99.90;;;;;;5059942;28;20216;-84
2021/12/27 03:45:24;;;;;;;0.53;0.53;;;4.40;99.90;;;;;;5066931;28;20284;-84
2021/12/27 03:47:50;;;;;;;0.47;0.47;;;4.50;99.90;;;;;;5065706;28;20166;-84
2021/12/27 03:50:16;;;;;;;0.23;0.23;;;4.50;99.90;;;;;;5067244;28;20179;-84
2021/12/27 03:52:43;;;;;;;0.60;0.57;;;4.40;99.90;;;;;;5067607;28;20193;-84
2021/12/27 03:55:09;;;;;;;1.13;1.07;;;4.30;99.90;;;;;;5068249;28;20188;-83
2021/12/27 03:57:38;;;;;;;4.80;0.90;;;4.30;99.90;;;;;;5065908;28;20186;-84
2021/12/27 04:00:28;;;;;;;0.60;0.37;;;4.50;99.90;;;;;;5066960;28;20627;-84
2021/12/27 04:03:00;;;;;;;0.20;0.20;;;4.70;99.90;;;;;;5065934;28;20690;-84
2021/12/27 04:05:27;;;;;;;0.20;0.20;;;4.70;99.90;;;;;;5066233;28;20205;-84
2021/12/27 04:08:00;;;;;;;0.43;0.40;;;4.60;99.90;;;;;;5065776;28;20194;-85
2021/12/27 04:10:27;;;;;;;0.10;0.10;;;4.70;99.90;;;;;;5067658;28;20157;-84
2021/12/27 04:12:53;;;;;;;0.20;0.20;;;4.80;99.90;;;;;;5067078;28;20805;-84
2021/12/27 04:15:18;;;;;;;1.80;0.93;;;4.40;99.90;;;;;;5065906;28;20186;-84
2021/12/27 04:17:44;;;;;;;0.60;0.40;;;4.40;99.90;;;;;;5066287;28;20189;-84
2021/12/27 04:20:10;;;;;;;0.70;0.70;;;4.50;99.90;;;;;;5066464;28;20191;-85
2021/12/27 04:22:35;;;;;;;0.70;0.70;;;4.40;99.90;;;;;;5057564;28;20199;-83
2021/12/27 04:25:02;;;;;;;0.83;0.67;;;4.20;99.90;;;;;;5061450;28;20262;-84
2021/12/27 04:27:27;;;;;;;1.17;0.60;;;4.10;99.90;;;;;;5065351;28;20179;-84
2021/12/27 04:29:53;;;;;;;0.50;0.40;;;4.10;99.90;;;;;;5065515;28;20195;-84
2021/12/27 04:32:20;;;;;;;0.57;0.43;;;4.30;99.90;;;;;;5064740;28;20193;-84
2021/12/27 04:34:46;;;;;;;0.60;0.60;;;4.40;99.90;;;;;;5064197;28;20312;-84
2021/12/27 04:37:11;;;;;;;0.67;0.40;;;4.50;99.90;;;;;;5081991;28;20268;-84
2021/12/27 04:39:37;;;;;;;0.80;0.80;;;4.70;99.90;;;;;;5064817;28;20218;-84
2021/12/27 04:42:04;;;;;;;2.57;1.23;;;4.80;99.90;;;;;;5062110;28;20205;-84
2021/12/27 04:44:30;;;;;;;2.10;0.60;;;4.90;99.90;;;;;;5064805;28;20197;-84
2021/12/27 04:46:55;;;;;;;1.70;1.17;;;5.00;99.90;;;;;;5064399;28;20206;-84
2021/12/27 04:49:21;;;;;;;1.23;1.13;;;5.10;99.90;;;;;;5066963;28;20181;-84
2021/12/27 04:51:46;;;;;;;0.57;0.57;;;5.10;99.90;;;;;;5061637;28;20686;-84
2021/12/27 04:54:12;;;;;;;1.40;0.43;;;5.10;99.90;;;;;;5057478;28;20188;-84
2021/12/27 04:56:38;;;;;;;0.23;0.23;;;5.10;99.90;;;;;;5060524;28;20185;-84
2021/12/27 04:59:03;;;;;;;2.33;0.60;;;4.60;99.90;;;;;;5060474;28;20289;-84
2021/12/27 05:01:29;;;;;;;1.23;0.97;;;4.50;99.90;;;;;;5063601;28;20216;-84
2021/12/27 05:03:54;;;;;;;0.20;0.20;;;4.60;99.90;;;;;;5066337;28;20188;-84
2021/12/27 05:06:20;;;;;;;0.40;0.40;;;4.50;99.90;;;;;;5067246;28;20192;-84
2021/12/27 05:08:48;;;;;;;1.00;1.00;;;4.40;99.90;;;;;;5061361;28;20192;-84
2021/12/27 05:11:14;;;;;;;0.67;0.67;;;4.30;99.90;;;;;;5064741;28;20281;-84
2021/12/27 05:13:39;;;;;;;0.40;0.40;;;4.40;99.90;;;;;;5062382;28;20648;-84
2021/12/27 05:16:05;;;;;;;0.30;0.20;;;4.40;99.90;;;;;;5064264;28;20184;-84
2021/12/27 05:18:30;;;;;;;0.77;0.77;;;4.40;99.90;;;;;;5064265;28;20187;-84
2021/12/27 05:20:56;;;;;;;0.83;0.53;;;4.40;99.90;;;;;;5061907;28;20248;-84
2021/12/27 05:23:22;;;;;;;0.33;0.30;;;4.40;99.90;;;;;;5064810;28;20227;-84
2021/12/27 05:25:48;;;;;;;1.27;0.67;;;4.30;99.90;;;;;;5066744;28;20729;-84
2021/12/27 05:28:16;;;;;;;0.93;0.40;;;4.50;99.90;;;;;;5066090;28;20709;-84
2021/12/27 05:30:43;;;;;;;0.10;0.10;;;4.50;99.90;;;;;;5063688;28;20205;-85
2021/12/27 05:33:09;;;;;;;0.10;0.10;;;4.50;99.90;;;;;;5063090;28;20179;-84
2021/12/27 05:35:35;;;;;;;0.40;0.40;;;4.70;99.90;;;;;;5065812;28;20188;-84
2021/12/27 05:38:00;;;;;;;0.33;0.33;;;4.90;99.90;;;;;;5060294;28;20197;-84
2021/12/27 05:40:26;;;;;;;1.27;1.17;;;4.80;99.90;;;;;;5064995;28;20192;-84
2021/12/27 05:42:53;;;;;;;3.10;1.03;;;4.90;99.90;;;;;;5064614;28;20208;-84
2021/12/27 05:45:20;;;;;;;0.10;0.10;;;4.90;99.90;;;;;;5063168;28;20289;-84
2021/12/27 05:47:46;;;;;;;0.70;0.70;;;4.70;99.90;;;;;;5062475;28;20568;-83
2021/12/27 05:50:14;;;;;;;0.47;0.40;;;4.50;99.90;;;;;;5065147;28;20182;-84
2021/12/27 05:52:40;;;;;;;0.80;0.70;;;4.50;99.90;;;;;;5062348;28;20204;-82
2021/12/27 05:55:08;;;;;;;0.10;0.10;;;4.60;99.90;;;;;;5065655;28;20193;-83
2021/12/27 05:57:35;;;;;;;0.53;0.37;;;4.80;99.90;;;;;;5063993;28;20266;-83
2021/12/27 06:00:01;;;;;;;0.50;0.40;;;4.60;99.90;;;;;;5065881;28;20188;-83
2021/12/27 06:02:26;;;;;;;0.30;0.30;;;4.80;99.90;;;;;;5065485;28;20252;-83
2021/12/27 06:04:52;;;;;;;0.27;0.27;;;4.90;99.90;;;;;;5063309;28;20445;-83
2021/12/27 06:07:18;;;;;;;0.10;0.10;;;5.00;99.90;;;;;;5065653;28;20183;-83
2021/12/27 06:09:44;;;;;;;0.67;0.67;;;5.10;99.90;;;;;;5065428;28;20195;-83
2021/12/27 06:12:10;;;;;;;0.20;0.20;;;5.30;99.90;;;;;;5064518;28;20193;-83
2021/12/27 06:14:35;;;;;;;0.30;0.30;;;5.20;99.90;;;;;;5059885;28;20188;-81
2021/12/27 06:17:01;;;;;;;0.50;0.50;;;5.20;99.90;;;;;;5066091;28;20553;-81
2021/12/27 06:19:27;;;;;;;0.63;0.60;;;5.40;99.90;;;;;;5063379;28;20197;-82
2021/12/27 06:21:53;;;;;;;0.30;0.30;;;5.40;99.90;;;;;;5061103;28;20269;-84
2021/12/27 06:24:20;;;;;;;0.40;0.30;;;5.30;99.90;;;;;;5061285;28;20784;-83
2021/12/27 06:26:46;;;;;;;0.37;0.37;;;5.10;99.90;;;;;;5057478;28;20693;-84
2021/12/27 06:29:12;;;;;;;0.60;0.47;;;4.90;99.90;;;;;;5054784;28;20181;-84
2021/12/27 06:31:37;;;;;;;0.20;0.20;;;4.90;99.90;;;;;;5061546;28;20208;-84
2021/12/27 06:34:03;;;;;;;0.37;0.37;;;4.80;99.90;;;;;;5062491;28;21258;-84
2021/12/27 06:36:29;;;;;;;0.30;0.30;;;4.70;99.90;;;;;;5062611;28;20274;-83
2021/12/27 06:38:55;;;;;;;2.80;0.90;;;4.70;99.90;;;;;;5058051;28;20358;-83
2021/12/27 06:41:23;;;;;;;0.67;0.30;;;4.70;99.90;;;;;;5064902;28;20288;-84
2021/12/27 06:43:48;;;;;;;0.60;0.47;;;4.80;99.90;;;;;;5058180;28;20659;-84
2021/12/27 06:46:14;;;;;;;0.10;0.10;;;5.00;99.90;;;;;;5059235;28;20216;-84
2021/12/27 06:48:39;;;;;;;0.50;0.50;;;5.10;99.90;;;;;;5064536;28;20215;-84
2021/12/27 06:51:05;;;;;;;0.37;0.37;;;5.00;99.90;;;;;;5062464;28;20658;-84
2021/12/27 06:53:31;;;;;;;0.37;0.20;;;4.90;99.90;;;;;;5062818;28;20199;-82
2021/12/27 06:55:57;;;;;;;0.43;0.43;;;5.00;99.90;;;;;;5062587;28;20185;-83
2021/12/27 06:58:23;;;;;;;0.30;0.30;;;4.90;99.90;;;;;;5061826;28;20258;-84
2021/12/27 07:00:51;;;;;;;0.53;0.53;;;4.70;99.90;;;;;;5059475;28;20184;-84
2021/12/27 07:03:18;;;;;;;0.73;0.73;;;4.70;99.90;;;;;;5062745;28;20737;-84
2021/12/27 07:05:44;;;;;;;0.47;0.47;;;4.80;99.90;;;;;;5059424;28;20962;-84
2021/12/27 07:08:10;;;;;;;0.27;0.27;;;5.00;99.90;;;;;;5061929;28;20650;-84
2021/12/27 07:10:36;;;;;;;0.43;0.43;;;5.00;99.90;;;;;;5064903;28;20207;-84
2021/12/27 07:13:04;;;;;;;0.53;0.53;;;4.90;99.90;;;;;;5067256;28;20205;-84
2021/12/27 07:15:30;;;;;;;0.53;0.53;;;4.70;99.90;;;;;;5063342;28;20190;-85
2021/12/27 07:17:56;;;;;;;3.53;0.60;;;4.60;99.90;;;;;;5061889;28;20185;-84
2021/12/27 07:20:22;;;;;;;0.30;0.30;;;4.80;99.90;;;;;;5058406;28;20192;-84
2021/12/27 07:22:48;;;;;;;0.20;0.20;;;5.00;99.90;;;;;;5062682;28;20270;-84
2021/12/27 07:25:13;;;;;;;0.10;0.10;;;5.20;99.90;;;;;;5066529;28;20666;-84
2021/12/27 07:27:39;;;;;;;0.50;0.50;;;5.40;99.90;;;;;;5060910;28;20184;-83
2021/12/27 07:30:08;;;;;;;0.37;0.37;;;5.40;99.90;;;;;;5061745;28;20192;-83
2021/12/27 07:32:34;;;;;;;0.53;0.53;;;5.50;99.90;;;;;;5066024;28;20237;-82
2021/12/27 07:35:00;;;;;;;0.37;0.33;;;5.20;99.90;;;;;;5055406;28;20263;-83
2021/12/27 07:37:25;;;;;;;0.30;0.30;;;4.80;99.90;;;;;;5059166;28;20187;-81
2021/12/27 07:39:51;;;;;;;0.60;0.60;;;4.80;99.90;;;;;;5063159;28;20196;-82
2021/12/27 07:42:17;;;;;;;0.63;0.63;;;4.80;99.90;;;;;;5058541;28;20204;-82
2021/12/27 07:44:42;;;;;;;2.73;0.33;;;5.00;99.90;;;;;;5047566;28;20287;-84
2021/12/27 07:47:08;;;;;;;0.20;0.20;;;5.20;99.90;;;;;;5048512;28;20200;-84
2021/12/27 07:49:33;;;;;;;0.50;0.50;;;5.30;99.90;;;;;;5055291;28;20201;-83
2021/12/27 07:51:59;;;;;;;0.20;0.20;;;5.50;99.90;;;;;;5055795;28;20201;-84
2021/12/27 07:54:24;;;;;;;0.27;0.27;;;5.50;99.90;;;;;;5059152;28;20181;-82
2021/12/27 07:56:50;;;;;;;0.60;0.60;;;5.50;99.90;;;;;;5061244;28;20192;-82
2021/12/27 07:59:16;;;;;;;0.33;0.33;;;5.60;99.90;;;;;;5061548;28;20197;-82
2021/12/27 08:01:42;;;;;;;0.20;0.20;;;5.60;99.90;;;;;;5066259;28;20271;-82
2021/12/27 08:04:08;;;;;;;1.40;0.50;;;5.70;99.90;;;;;;5065441;28;20177;-82
2021/12/27 08:06:34;;;;;;;0.40;0.40;;;5.80;99.90;;;;;;5062116;28;20212;-82
2021/12/27 08:09:00;;;;;;;0.57;0.57;;;5.80;99.90;;;;;;5063291;28;20183;-82
2021/12/27 08:11:26;;;;;;;0.30;0.30;;;6.00;99.90;;;;;;5059989;28;20211;-82
2021/12/27 08:13:52;;;;;;;0.90;0.37;;;5.90;99.90;;;;;;5064994;28;20185;-82
2021/12/27 08:16:23;;;;;;;0.63;0.63;;;5.60;99.90;;;;;;5061056;28;20655;-82
2021/12/27 08:18:50;;;;;;;1.50;1.17;;;5.50;99.90;;;;;;5059797;28;20181;-80
2021/12/27 08:21:16;;;;;;;3.63;0.60;;;5.30;99.90;;;;;;5069760;28;20250;-81
2021/12/27 08:23:42;;;;;;;0.40;0.40;;;5.20;99.90;;;;;;5056947;28;20185;-81
2021/12/27 08:26:07;;;;;;;0.60;0.60;;;5.20;99.90;;;;;;5069030;28;20208;-81
2021/12/27 08:28:33;;;;;;;0.20;0.20;;;5.40;99.90;;;;;;5071202;28;20196;-81
2021/12/27 08:30:58;;;;;;;0.77;0.77;;;5.40;99.90;;;;;;5072393;28;20188;-81
2021/12/27 08:33:24;;;;;;;3.57;1.13;;;5.20;99.90;;;;;;5071960;28;20185;-81
2021/12/27 08:35:50;;;;;;;2.17;1.10;;;5.10;99.90;;;;;;5070759;28;20204;-82
2021/12/27 08:38:18;;;;;;;1.53;1.20;;;5.10;99.90;;;;;;5066742;28;20611;-81
2021/12/27 08:40:43;;;;;;;3.97;3.57;;;5.10;99.90;;;;;;5086752;28;20235;-81
2021/12/27 08:43:09;;;;;;;23.43;14.73;;;5.10;99.90;;;;;;5064193;28;20188;-81
2021/12/27 08:45:34;;;;;;;6.80;6.17;;;5.00;99.90;;;;;;5069356;28;20219;-81
2021/12/27 08:48:00;;;;;;;3.63;3.37;;;5.00;99.90;;;;;;5066273;28;20166;-81
2021/12/27 08:50:26;;;;;;;3.17;2.87;;;5.20;99.90;;;;;;5069001;28;20192;-81
2021/12/27 08:52:51;;;;;;;1.67;0.83;;;5.10;99.90;;;;;;5066379;28;20204;-81
2021/12/27 08:55:17;;;;;;;1.07;0.90;;;5.20;99.90;;;;;;5063828;28;20189;-80
2021/12/27 08:57:43;;;;;;;1.37;1.27;;;5.30;99.90;;;;;;5069703;28;20205;-80
2021/12/27 09:00:12;;;;;;;1.17;1.13;;;5.60;99.90;;;;;;5069230;28;20181;-81
2021/12/27 09:02:37;;;;;;;4.33;0.83;;;5.40;99.90;;;;;;5070292;28;20704;-81
2021/12/27 09:05:04;;;;;;;0.60;0.60;;;5.40;99.90;;;;;;5061905;28;20288;-81
2021/12/27 09:07:30;;;;;;;0.60;0.60;;;5.30;99.90;;;;;;5068029;28;20189;-81
2021/12/27 09:09:55;;;;;;;1.70;0.83;;;5.30;99.90;;;;;;5065633;28;20171;-81
2021/12/27 09:12:21;;;;;;;1.40;1.30;;;5.40;99.90;;;;;;5068299;28;20193;-81
2021/12/27 09:14:47;;;;;;;1.87;1.40;;;5.40;99.90;;;;;;5062664;28;21050;-81
2021/12/27 09:17:12;;;;;;;4.43;2.43;;;5.60;99.90;;;;;;5067925;28;20173;-81
2021/12/27 09:19:38;;;;;;;0.90;0.80;;;5.50;99.90;;;;;;5064221;28;20605;-81
2021/12/27 09:22:04;;;;;;;0.87;0.87;;;5.40;99.90;;;;;;5067793;28;20203;-81
2021/12/27 09:24:31;;;;;;;1.57;1.47;;;5.40;99.90;;;;;;5067026;28;20238;-81
2021/12/27 09:26:58;;;;;;;1.63;1.53;;;5.50;99.90;;;;;;5063582;28;20954;-81
2021/12/27 09:29:23;;;;;;;1.93;1.83;;;5.50;99.90;;;;;;5068021;28;20180;-82
2021/12/27 09:31:50;;;;;;;0.87;0.87;;;5.60;99.90;;;;;;5065327;28;20355;-82
2021/12/27 09:34:16;;;;;;;1.43;0.87;;;5.50;99.90;;;;;;5063596;28;20654;-86
2021/12/27 09:36:41;;;;;;;2.37;1.60;;;5.50;99.90;;;;;;5062903;28;20180;-84
2021/12/27 09:39:07;;;;;;;2.60;2.40;;;5.40;99.90;;;;;;5062093;28;20319;-84
2021/12/27 09:41:33;;;;;;;1.80;1.70;;;5.40;99.90;;;;;;5061893;28;20234;-85
2021/12/27 09:43:59;;;;;;;1.03;0.63;;;5.40;99.90;;;;;;5063744;28;20187;-85
2021/12/27 09:46:24;;;;;;;0.50;0.50;;;5.40;99.90;;;;;;5064489;28;20685;-85
2021/12/27 09:48:54;;;;;;;0.67;0.67;;;5.50;99.90;;;;;;5064953;28;20189;-85
2021/12/27 09:51:20;;;;;;;0.63;0.63;;;5.50;99.90;;;;;;5063775;28;20753;-84
2021/12/27 09:53:47;;;;;;;0.67;0.67;;;5.50;99.90;;;;;;5063605;28;20523;-88
2021/12/27 09:56:12;;;;;;;0.50;0.50;;;5.50;99.90;;;;;;5062062;28;20273;-82
2021/12/27 09:58:39;;;;;;;1.10;1.07;;;5.60;99.90;;;;;;5066111;28;20196;-82
2021/12/27 10:01:06;;;;;;;15.23;9.80;;;5.60;99.90;;;;;;5066257;28;20209;-82
2021/12/27 10:03:57;;;;;;;2.97;2.73;;;5.70;99.90;;;;;;5066023;28;20637;-82
2021/12/27 10:06:25;;;;;;;10.80;6.70;;;5.60;99.90;;;;;;5064099;28;20204;-83
2021/12/27 10:08:53;;;;;;;9.40;8.50;;;5.70;99.90;;;;;;5064430;28;20662;-83
2021/12/27 10:11:31;;;;;;;8.63;7.50;;;5.90;99.90;;;;;;5065542;28;20319;-82
2021/12/27 10:13:58;;;;;;;7.47;5.30;;;6.00;99.90;;;;;;5065008;28;20177;-82
2021/12/27 10:16:24;;;;;;;4.60;2.13;;;5.90;99.90;;;;;;5066047;28;20185;-83
2021/12/27 10:18:58;;;;;;;1.23;1.13;;;5.80;99.90;;;;;;5060455;28;20628;-82
2021/12/27 10:21:24;;;;;;;0.90;0.77;;;5.80;99.90;;;;;;5063588;28;20205;-82
2021/12/27 10:24:07;;;;;;;1.17;0.80;;;5.80;99.90;;;;;;5064158;28;20193;-82
2021/12/27 10:26:35;;;;;;;3.93;1.30;;;5.80;99.90;;;;;;5065869;28;20207;-82
2021/12/27 10:29:19;;;;;;;0.53;0.53;;;5.90;99.90;;;;;;5062949;28;20181;-82
2021/12/27 10:31:59;;;;;;;1.13;0.93;;;6.00;99.90;;;;;;5064072;28;20205;-82
2021/12/27 10:34:31;;;;;;;0.50;0.50;;;6.00;99.90;;;;;;5062103;28;20192;-85
2021/12/27 10:37:08;;;;;;;1.87;1.00;;;6.00;99.90;;;;;;5061906;28;20266;-84
2021/12/27 10:39:54;;;;;;;0.13;0.13;;;6.00;99.90;;;;;;5063436;28;20188;-85
2021/12/27 10:42:25;;;;;;;0.20;0.20;;;6.00;99.90;;;;;;5062740;28;20224;-86
2021/12/27 10:44:54;;;;;;;0.40;0.40;;;6.00;99.90;;;;;;5064390;28;20208;-85
2021/12/27 10:47:35;;;;;;;0.43;0.43;;;6.00;99.90;;;;;;5066323;28;20211;-85
2021/12/27 10:50:25;;;;;;;0.80;0.80;;;6.10;99.90;;;;;;5065965;28;20258;-85
2021/12/27 10:53:02;;;;;;;0.13;0.13;;;6.30;99.90;;;;;;5066900;28;20209;-84
2021/12/27 10:55:35;;;;;;;0.40;0.40;;;6.40;99.90;;;;;;5065040;28;20676;-85
2021/12/27 10:58:18;;;;;;;0.83;0.30;;;6.30;99.90;;;;;;5064287;28;20208;-84
2021/12/27 11:01:07;;;;;;;0.83;0.53;;;6.30;99.90;;;;;;5065461;28;20949;-84
2021/12/27 11:03:43;;;;;;;1.80;1.17;;;6.40;99.90;;;;;;5062442;28;20276;-82
2021/12/27 11:06:12;;;;;;;0.40;0.40;;;6.60;99.90;;;;;;5067253;28;20212;-82
2021/12/27 11:08:39;;;;;;;0.67;0.47;;;6.80;99.90;;;;;;5066315;28;20185;-82
2021/12/27 11:11:06;;;;;;;1.40;0.90;;;6.80;99.90;;;;;;5064579;28;20201;-82
2021/12/27 11:13:32;;;;;;;0.40;0.37;;;6.90;99.90;;;;;;5066481;28;20178;-82
2021/12/27 11:15:58;;;;;;;1.03;0.60;;;6.90;99.90;;;;;;5065047;28;20212;-84
2021/12/27 11:18:24;;;;;;;0.50;0.50;;;7.10;99.90;;;;;;5067537;28;20227;-82
2021/12/27 11:20:53;;;;;;;0.70;0.70;;;7.10;99.90;;;;;;5062350;28;20195;-82
2021/12/27 11:23:21;;;;;;;1.17;0.47;;;7.20;99.90;;;;;;5066725;28;20189;-83
2021/12/27 11:25:57;;;;;;;0.33;0.33;;;7.10;99.90;;;;;;5068557;28;20213;-82
2021/12/27 11:28:32;;;;;;;1.00;1.00;;;6.90;99.90;;;;;;5062800;28;20713;-82
2021/12/27 11:31:01;;;;;;;0.43;0.43;;;6.80;99.90;;;;;;5064051;28;20269;-82
2021/12/27 11:33:27;;;;;;;1.73;1.37;;;6.70;99.90;;;;;;5059577;28;20186;-82
2021/12/27 11:35:58;;;;;;;0.60;0.60;;;6.70;99.90;;;;;;5068564;28;20217;-82
2021/12/27 11:38:32;;;;;;;4.23;0.97;;;6.70;99.90;;;;;;5066226;28;20185;-82
2021/12/27 11:40:59;;;;;;;3.33;1.43;;;6.70;99.90;;;;;;5064540;28;20197;-81
2021/12/27 11:43:44;;;;;;;0.77;0.77;;;6.50;99.90;;;;;;5067533;28;20190;-81
2021/12/27 11:46:10;;;;;;;0.33;0.33;;;6.40;99.90;;;;;;5063834;28;20205;-82
2021/12/27 11:48:45;;;;;;;0.60;0.53;;;6.60;99.90;;;;;;5064366;28;20196;-82
2021/12/27 11:51:11;;;;;;;0.93;0.87;;;6.50;99.90;;;;;;5064895;28;20200;-82
2021/12/27 11:53:53;;;;;;;2.80;1.07;;;6.60;99.90;;;;;;5064304;28;20251;-82
2021/12/27 11:56:38;;;;;;;2.83;0.40;;;6.50;99.90;;;;;;5061907;28;20242;-82
2021/12/27 11:59:22;;;;;;;0.63;0.63;;;6.50;99.90;;;;;;5063050;28;20254;-82
2021/12/27 12:01:50;;;;;;;0.60;0.60;;;6.70;99.90;;;;;;5061865;28;20621;-82
2021/12/27 12:04:45;;;;;;;0.47;0.47;;;6.80;99.90;;;;;;5064450;28;20561;-82
2021/12/27 12:07:34;;;;;;;1.70;0.83;;;6.80;99.90;;;;;;5064338;28;20237;-82
2021/12/27 12:10:06;;;;;;;0.50;0.50;;;6.80;99.90;;;;;;5066522;28;20185;-83
2021/12/27 12:12:33;;;;;;;2.57;0.60;;;6.80;99.90;;;;;;5061882;28;20211;-83
2021/12/27 12:15:00;;;;;;;0.53;0.53;;;7.00;99.90;;;;;;5066165;28;21227;-82
2021/12/27 12:17:41;;;;;;;0.67;0.33;;;7.10;99.90;;;;;;5063105;28;20248;-82
2021/12/27 12:20:28;;;;;;;0.20;0.20;;;7.40;99.90;;;;;;5064726;28;20183;-83
2021/12/27 12:23:05;;;;;;;0.40;0.40;;;7.60;99.90;;;;;;5057029;28;20269;-83
2021/12/27 12:25:31;;;;;;;0.57;0.57;;;7.80;99.90;;;;;;5065553;28;20205;-83
2021/12/27 12:28:01;;;;;;;1.03;0.93;;;7.90;99.90;;;;;;5060602;28;20482;-83
2021/12/27 12:30:54;;;;;;;0.70;0.70;;;8.00;99.90;;;;;;5063740;28;20663;-83
2021/12/27 12:33:25;;;;;;;0.97;0.60;;;8.10;99.90;;;;;;5059651;28;20196;-82
2021/12/27 12:35:52;;;;;;;0.33;0.33;;;8.20;99.90;;;;;;5062691;28;20202;-81
2021/12/27 12:38:23;;;;;;;0.73;0.73;;;8.20;99.90;;;;;;5063899;28;20341;-81
2021/12/27 12:41:20;;;;;;;0.30;0.30;;;8.30;99.90;;;;;;5065563;28;20271;-82
2021/12/27 12:43:53;;;;;;;0.30;0.30;;;8.40;99.90;;;;;;5065086;28;20183;-82
2021/12/27 12:46:26;;;;;;;0.23;0.23;;;8.50;99.90;;;;;;5064591;28;20204;-81
2021/12/27 12:49:10;;;;;;;0.60;0.60;;;8.60;99.90;;;;;;5059012;28;20183;-81
2021/12/27 12:51:43;;;;;;;1.40;1.30;;;8.60;99.90;;;;;;5062647;28;20243;-82
2021/12/27 12:54:27;;;;;;;2.63;0.63;;;8.70;99.90;;;;;;5064952;28;20235;-81
2021/12/27 12:56:55;;;;;;;0.33;0.33;;;8.70;99.90;;;;;;5062402;28;20532;-82
2021/12/27 12:59:39;;;;;;;1.73;0.37;;;8.70;99.90;;;;;;5063459;28;20197;-82
2021/12/27 13:02:13;;;;;;;2.90;1.87;;;8.70;99.90;;;;;;5061720;28;20205;-81
2021/12/27 13:04:44;;;;;;;1.77;0.60;;;8.70;99.90;;;;;;5059648;28;20732;-82